sensor_id;sensor_type;location;lat;lon;timestamp;P1;durP1;ratioP1;P2;durP2;ratioP2
7128;SDS011;3606;52.930;8.644;2024-02-21T00:00:35;24.57;;;12.33;;
7128;SDS011;3606;52.930;8.644;2024-02-21T00:03:03;25.43;;;12.60;;
7128;SDS011;3606;52.930;8.644;2024-02-21T00:05:29;25.13;;;12.67;;
7128;SDS011;3606;52.930;8.644;2024-02-21T00:07:55;24.90;;;13.87;;
7128;SDS011;3606;52.930;8.644;2024-02-21T00:10:22;25.37;;;13.27;;
7128;SDS011;3606;52.930;8.644;2024-02-21T00:12:48;28.93;;;13.60;;
7128;SDS011;3606;52.930;8.644;2024-02-21T00:15:14;30.40;;;13.90;;
7128;SDS011;3606;52.930;8.644;2024-02-21T00:17:40;24.53;;;13.33;;
7128;SDS011;3606;52.930;8.644;2024-02-21T00:20:06;25.10;;;13.07;;
7128;SDS011;3606;52.930;8.644;2024-02-21T00:22:32;24.23;;;13.37;;
7128;SDS011;3606;52.930;8.644;2024-02-21T00:24:58;26.90;;;14.40;;
7128;SDS011;3606;52.930;8.644;2024-02-21T00:27:24;25.20;;;13.17;;
7128;SDS011;3606;52.930;8.644;2024-02-21T00:29:50;27.30;;;12.83;;
7128;SDS011;3606;52.930;8.644;2024-02-21T00:32:16;22.70;;;13.17;;
7128;SDS011;3606;52.930;8.644;2024-02-21T00:34:41;25.03;;;13.40;;
7128;SDS011;3606;52.930;8.644;2024-02-21T00:37:07;26.00;;;13.40;;
7128;SDS011;3606;52.930;8.644;2024-02-21T00:39:33;30.17;;;14.33;;
7128;SDS011;3606;52.930;8.644;2024-02-21T01:03:47;30.00;;;15.13;;
7128;SDS011;3606;52.930;8.644;2024-02-21T02:02:54;27.53;;;14.77;;
7128;SDS011;3606;52.930;8.644;2024-02-21T02:12:09;33.60;;;17.13;;
7128;SDS011;3606;52.930;8.644;2024-02-21T02:14:34;30.13;;;17.27;;
7128;SDS011;3606;52.930;8.644;2024-02-21T02:17:00;31.30;;;15.40;;
7128;SDS011;3606;52.930;8.644;2024-02-21T02:19:25;36.17;;;16.10;;
7128;SDS011;3606;52.930;8.644;2024-02-21T02:21:56;35.27;;;16.10;;
7128;SDS011;3606;52.930;8.644;2024-02-21T02:24:29;37.07;;;15.97;;
7128;SDS011;3606;52.930;8.644;2024-02-21T02:26:54;25.47;;;14.60;;
7128;SDS011;3606;52.930;8.644;2024-02-21T02:29:20;29.00;;;15.30;;
7128;SDS011;3606;52.930;8.644;2024-02-21T02:31:45;30.57;;;15.40;;
7128;SDS011;3606;52.930;8.644;2024-02-21T02:34:12;29.40;;;15.87;;
7128;SDS011;3606;52.930;8.644;2024-02-21T02:36:37;24.03;;;15.13;;
7128;SDS011;3606;52.930;8.644;2024-02-21T02:39:03;30.70;;;14.50;;
7128;SDS011;3606;52.930;8.644;2024-02-21T02:41:28;31.20;;;14.67;;
7128;SDS011;3606;52.930;8.644;2024-02-21T02:43:54;31.87;;;15.37;;
7128;SDS011;3606;52.930;8.644;2024-02-21T02:46:19;27.20;;;14.90;;
7128;SDS011;3606;52.930;8.644;2024-02-21T02:48:45;25.70;;;14.30;;
7128;SDS011;3606;52.930;8.644;2024-02-21T02:51:11;28.03;;;14.47;;
7128;SDS011;3606;52.930;8.644;2024-02-21T02:53:36;26.30;;;14.57;;
7128;SDS011;3606;52.930;8.644;2024-02-21T02:56:02;28.77;;;13.30;;
7128;SDS011;3606;52.930;8.644;2024-02-21T02:58:28;22.13;;;13.10;;
7128;SDS011;3606;52.930;8.644;2024-02-21T03:00:53;19.77;;;13.07;;
7128;SDS011;3606;52.930;8.644;2024-02-21T03:03:19;29.70;;;13.70;;
7128;SDS011;3606;52.930;8.644;2024-02-21T03:05:45;26.20;;;14.20;;
7128;SDS011;3606;52.930;8.644;2024-02-21T03:08:11;30.97;;;14.50;;
7128;SDS011;3606;52.930;8.644;2024-02-21T03:10:36;21.03;;;13.10;;
7128;SDS011;3606;52.930;8.644;2024-02-21T03:13:02;30.20;;;13.80;;
7128;SDS011;3606;52.930;8.644;2024-02-21T03:15:28;28.20;;;13.73;;
7128;SDS011;3606;52.930;8.644;2024-02-21T03:17:54;26.43;;;13.63;;
7128;SDS011;3606;52.930;8.644;2024-02-21T03:20:19;24.50;;;12.83;;
7128;SDS011;3606;52.930;8.644;2024-02-21T03:22:45;22.77;;;13.37;;
7128;SDS011;3606;52.930;8.644;2024-02-21T03:25:11;27.23;;;14.37;;
7128;SDS011;3606;52.930;8.644;2024-02-21T03:27:37;27.30;;;14.03;;
7128;SDS011;3606;52.930;8.644;2024-02-21T03:30:03;20.97;;;12.77;;
7128;SDS011;3606;52.930;8.644;2024-02-21T03:32:29;25.77;;;13.00;;
7128;SDS011;3606;52.930;8.644;2024-02-21T03:34:55;25.10;;;12.90;;
7128;SDS011;3606;52.930;8.644;2024-02-21T03:37:21;32.93;;;13.67;;
7128;SDS011;3606;52.930;8.644;2024-02-21T03:39:47;18.27;;;12.97;;
7128;SDS011;3606;52.930;8.644;2024-02-21T03:42:12;20.67;;;12.67;;
7128;SDS011;3606;52.930;8.644;2024-02-21T03:44:38;25.87;;;13.50;;
7128;SDS011;3606;52.930;8.644;2024-02-21T03:47:04;27.10;;;13.57;;
7128;SDS011;3606;52.930;8.644;2024-02-21T03:49:29;22.40;;;12.83;;
7128;SDS011;3606;52.930;8.644;2024-02-21T03:51:55;25.73;;;13.57;;
7128;SDS011;3606;52.930;8.644;2024-02-21T03:54:21;26.10;;;14.23;;
7128;SDS011;3606;52.930;8.644;2024-02-21T03:56:46;29.53;;;13.50;;
7128;SDS011;3606;52.930;8.644;2024-02-21T03:59:15;25.73;;;13.57;;
7128;SDS011;3606;52.930;8.644;2024-02-21T04:01:41;25.20;;;14.40;;
7128;SDS011;3606;52.930;8.644;2024-02-21T04:04:06;28.60;;;13.53;;
7128;SDS011;3606;52.930;8.644;2024-02-21T04:06:32;25.80;;;14.07;;
7128;SDS011;3606;52.930;8.644;2024-02-21T04:08:58;24.43;;;13.90;;
7128;SDS011;3606;52.930;8.644;2024-02-21T04:11:23;26.30;;;13.37;;
7128;SDS011;3606;52.930;8.644;2024-02-21T04:13:49;27.23;;;14.20;;
7128;SDS011;3606;52.930;8.644;2024-02-21T04:16:16;23.67;;;12.97;;
7128;SDS011;3606;52.930;8.644;2024-02-21T04:18:42;25.30;;;13.83;;
7128;SDS011;3606;52.930;8.644;2024-02-21T04:21:08;22.77;;;13.37;;
7128;SDS011;3606;52.930;8.644;2024-02-21T04:23:34;23.37;;;13.33;;
7128;SDS011;3606;52.930;8.644;2024-02-21T04:26:00;31.20;;;14.80;;
7128;SDS011;3606;52.930;8.644;2024-02-21T04:28:26;27.27;;;13.10;;
7128;SDS011;3606;52.930;8.644;2024-02-21T04:30:51;26.33;;;13.57;;
7128;SDS011;3606;52.930;8.644;2024-02-21T04:33:18;22.40;;;12.80;;
7128;SDS011;3606;52.930;8.644;2024-02-21T04:35:43;28.23;;;14.00;;
7128;SDS011;3606;52.930;8.644;2024-02-21T04:38:09;28.17;;;14.27;;
7128;SDS011;3606;52.930;8.644;2024-02-21T04:40:35;22.47;;;13.37;;
7128;SDS011;3606;52.930;8.644;2024-02-21T04:43:00;27.37;;;13.17;;
7128;SDS011;3606;52.930;8.644;2024-02-21T04:45:26;22.00;;;14.30;;
7128;SDS011;3606;52.930;8.644;2024-02-21T04:47:51;22.03;;;13.47;;
7128;SDS011;3606;52.930;8.644;2024-02-21T04:50:17;19.57;;;12.77;;
7128;SDS011;3606;52.930;8.644;2024-02-21T04:52:43;29.80;;;14.13;;
7128;SDS011;3606;52.930;8.644;2024-02-21T04:55:08;23.37;;;13.80;;
7128;SDS011;3606;52.930;8.644;2024-02-21T04:57:34;25.63;;;13.70;;
7128;SDS011;3606;52.930;8.644;2024-02-21T05:00:00;19.40;;;12.67;;
7128;SDS011;3606;52.930;8.644;2024-02-21T05:02:25;25.53;;;12.17;;
7128;SDS011;3606;52.930;8.644;2024-02-21T05:04:52;16.70;;;12.40;;
7128;SDS011;3606;52.930;8.644;2024-02-21T05:07:17;27.17;;;13.17;;
7128;SDS011;3606;52.930;8.644;2024-02-21T05:09:44;26.50;;;14.00;;
7128;SDS011;3606;52.930;8.644;2024-02-21T05:12:10;17.93;;;12.17;;
7128;SDS011;3606;52.930;8.644;2024-02-21T05:14:36;22.30;;;11.97;;
7128;SDS011;3606;52.930;8.644;2024-02-21T05:17:03;22.27;;;12.67;;
7128;SDS011;3606;52.930;8.644;2024-02-21T05:19:29;20.17;;;10.97;;
7128;SDS011;3606;52.930;8.644;2024-02-21T05:21:55;18.47;;;11.53;;
7128;SDS011;3606;52.930;8.644;2024-02-21T05:24:20;20.67;;;11.90;;
7128;SDS011;3606;52.930;8.644;2024-02-21T05:26:46;19.87;;;11.83;;
7128;SDS011;3606;52.930;8.644;2024-02-21T05:29:12;20.60;;;12.00;;
7128;SDS011;3606;52.930;8.644;2024-02-21T05:34:19;22.57;;;12.07;;
7128;SDS011;3606;52.930;8.644;2024-02-21T05:36:45;19.37;;;11.40;;
7128;SDS011;3606;52.930;8.644;2024-02-21T05:39:14;21.33;;;11.43;;
7128;SDS011;3606;52.930;8.644;2024-02-21T05:41:41;21.23;;;10.73;;
7128;SDS011;3606;52.930;8.644;2024-02-21T05:44:07;16.93;;;10.97;;
7128;SDS011;3606;52.930;8.644;2024-02-21T05:46:33;17.43;;;11.43;;
7128;SDS011;3606;52.930;8.644;2024-02-21T05:48:58;17.90;;;11.10;;
7128;SDS011;3606;52.930;8.644;2024-02-21T05:51:24;15.60;;;11.20;;
7128;SDS011;3606;52.930;8.644;2024-02-21T05:53:49;18.93;;;11.53;;
7128;SDS011;3606;52.930;8.644;2024-02-21T05:56:15;15.07;;;10.77;;
7128;SDS011;3606;52.930;8.644;2024-02-21T05:58:42;23.83;;;11.90;;
7128;SDS011;3606;52.930;8.644;2024-02-21T06:01:07;18.53;;;11.10;;
7128;SDS011;3606;52.930;8.644;2024-02-21T06:03:33;18.03;;;11.13;;
7128;SDS011;3606;52.930;8.644;2024-02-21T06:05:59;17.40;;;11.17;;
7128;SDS011;3606;52.930;8.644;2024-02-21T06:08:25;14.20;;;10.60;;
7128;SDS011;3606;52.930;8.644;2024-02-21T06:10:51;16.57;;;10.70;;
7128;SDS011;3606;52.930;8.644;2024-02-21T06:13:26;16.20;;;11.47;;
7128;SDS011;3606;52.930;8.644;2024-02-21T06:15:51;21.13;;;11.73;;
7128;SDS011;3606;52.930;8.644;2024-02-21T06:18:17;21.07;;;11.70;;
7128;SDS011;3606;52.930;8.644;2024-02-21T06:20:44;20.43;;;11.53;;
7128;SDS011;3606;52.930;8.644;2024-02-21T06:23:11;17.33;;;11.13;;
7128;SDS011;3606;52.930;8.644;2024-02-21T06:25:37;19.60;;;12.60;;
7128;SDS011;3606;52.930;8.644;2024-02-21T06:28:03;18.33;;;12.67;;
7128;SDS011;3606;52.930;8.644;2024-02-21T06:30:29;20.27;;;12.57;;
7128;SDS011;3606;52.930;8.644;2024-02-21T06:32:55;19.53;;;12.97;;
7128;SDS011;3606;52.930;8.644;2024-02-21T06:35:24;21.87;;;13.27;;
7128;SDS011;3606;52.930;8.644;2024-02-21T06:37:50;28.27;;;13.77;;
7128;SDS011;3606;52.930;8.644;2024-02-21T06:40:25;22.07;;;12.40;;
7128;SDS011;3606;52.930;8.644;2024-02-21T06:42:51;25.37;;;14.00;;
7128;SDS011;3606;52.930;8.644;2024-02-21T06:45:16;21.93;;;14.50;;
7128;SDS011;3606;52.930;8.644;2024-02-21T06:47:42;22.10;;;13.80;;
7128;SDS011;3606;52.930;8.644;2024-02-21T06:50:09;24.30;;;13.77;;
7128;SDS011;3606;52.930;8.644;2024-02-21T06:52:35;24.73;;;15.33;;
7128;SDS011;3606;52.930;8.644;2024-02-21T06:55:01;25.50;;;15.03;;
7128;SDS011;3606;52.930;8.644;2024-02-21T06:57:28;26.53;;;13.93;;
7128;SDS011;3606;52.930;8.644;2024-02-21T06:59:54;32.97;;;17.20;;
7128;SDS011;3606;52.930;8.644;2024-02-21T07:02:20;27.27;;;14.80;;
7128;SDS011;3606;52.930;8.644;2024-02-21T07:04:45;31.10;;;15.73;;
7128;SDS011;3606;52.930;8.644;2024-02-21T07:07:11;27.50;;;14.90;;
7128;SDS011;3606;52.930;8.644;2024-02-21T07:09:37;26.17;;;15.50;;
7128;SDS011;3606;52.930;8.644;2024-02-21T07:12:03;24.93;;;15.47;;
7128;SDS011;3606;52.930;8.644;2024-02-21T07:14:29;30.23;;;14.73;;
7128;SDS011;3606;52.930;8.644;2024-02-21T07:16:56;27.40;;;14.97;;
7128;SDS011;3606;52.930;8.644;2024-02-21T07:19:22;28.23;;;15.40;;
7128;SDS011;3606;52.930;8.644;2024-02-21T07:21:48;25.00;;;16.17;;
7128;SDS011;3606;52.930;8.644;2024-02-21T07:24:14;31.07;;;16.27;;
7128;SDS011;3606;52.930;8.644;2024-02-21T07:26:42;37.93;;;16.27;;
7128;SDS011;3606;52.930;8.644;2024-02-21T07:29:08;31.87;;;16.17;;
7128;SDS011;3606;52.930;8.644;2024-02-21T07:31:43;30.30;;;16.10;;
7128;SDS011;3606;52.930;8.644;2024-02-21T07:34:10;34.37;;;18.13;;
7128;SDS011;3606;52.930;8.644;2024-02-21T07:36:35;32.07;;;16.20;;
7128;SDS011;3606;52.930;8.644;2024-02-21T07:39:03;32.10;;;16.80;;
7128;SDS011;3606;52.930;8.644;2024-02-21T07:41:32;31.73;;;17.20;;
7128;SDS011;3606;52.930;8.644;2024-02-21T07:43:59;31.97;;;16.47;;
7128;SDS011;3606;52.930;8.644;2024-02-21T07:46:25;29.57;;;16.83;;
7128;SDS011;3606;52.930;8.644;2024-02-21T07:48:50;36.97;;;16.90;;
7128;SDS011;3606;52.930;8.644;2024-02-21T07:51:16;31.13;;;16.73;;
7128;SDS011;3606;52.930;8.644;2024-02-21T07:53:43;35.73;;;16.57;;
7128;SDS011;3606;52.930;8.644;2024-02-21T07:56:13;30.23;;;16.73;;
7128;SDS011;3606;52.930;8.644;2024-02-21T07:58:40;30.07;;;16.07;;
7128;SDS011;3606;52.930;8.644;2024-02-21T08:01:06;31.60;;;16.07;;
7128;SDS011;3606;52.930;8.644;2024-02-21T08:03:32;33.73;;;16.33;;
7128;SDS011;3606;52.930;8.644;2024-02-21T08:05:58;32.93;;;16.70;;
7128;SDS011;3606;52.930;8.644;2024-02-21T08:08:24;33.50;;;17.07;;
7128;SDS011;3606;52.930;8.644;2024-02-21T08:10:50;34.30;;;15.93;;
7128;SDS011;3606;52.930;8.644;2024-02-21T08:13:15;34.37;;;15.80;;
7128;SDS011;3606;52.930;8.644;2024-02-21T08:15:41;28.97;;;15.47;;
7128;SDS011;3606;52.930;8.644;2024-02-21T08:18:07;27.90;;;15.00;;
7128;SDS011;3606;52.930;8.644;2024-02-21T08:20:33;28.00;;;15.13;;
7128;SDS011;3606;52.930;8.644;2024-02-21T08:22:58;28.33;;;15.20;;
7128;SDS011;3606;52.930;8.644;2024-02-21T08:25:24;26.80;;;15.00;;
7128;SDS011;3606;52.930;8.644;2024-02-21T08:27:50;31.37;;;15.23;;
7128;SDS011;3606;52.930;8.644;2024-02-21T08:30:16;27.17;;;15.20;;
7128;SDS011;3606;52.930;8.644;2024-02-21T08:32:42;27.20;;;14.40;;
7128;SDS011;3606;52.930;8.644;2024-02-21T08:35:08;30.17;;;14.07;;
7128;SDS011;3606;52.930;8.644;2024-02-21T08:37:33;28.13;;;14.20;;
7128;SDS011;3606;52.930;8.644;2024-02-21T08:39:59;25.70;;;13.57;;
7128;SDS011;3606;52.930;8.644;2024-02-21T08:42:33;28.87;;;13.27;;
7128;SDS011;3606;52.930;8.644;2024-02-21T08:45:00;25.00;;;13.20;;
7128;SDS011;3606;52.930;8.644;2024-02-21T08:47:26;26.80;;;12.73;;
7128;SDS011;3606;52.930;8.644;2024-02-21T08:49:52;24.33;;;13.67;;
7128;SDS011;3606;52.930;8.644;2024-02-21T08:52:17;24.77;;;13.80;;
7128;SDS011;3606;52.930;8.644;2024-02-21T08:54:43;22.00;;;12.07;;
7128;SDS011;3606;52.930;8.644;2024-02-21T08:57:09;23.30;;;12.37;;
7128;SDS011;3606;52.930;8.644;2024-02-21T08:59:34;22.80;;;12.00;;
7128;SDS011;3606;52.930;8.644;2024-02-21T09:02:00;25.17;;;11.93;;
7128;SDS011;3606;52.930;8.644;2024-02-21T09:04:27;23.73;;;11.97;;
7128;SDS011;3606;52.930;8.644;2024-02-21T09:06:54;22.37;;;12.13;;
7128;SDS011;3606;52.930;8.644;2024-02-21T09:09:20;25.83;;;11.47;;
7128;SDS011;3606;52.930;8.644;2024-02-21T09:11:46;22.40;;;11.13;;
7128;SDS011;3606;52.930;8.644;2024-02-21T09:14:11;21.03;;;11.70;;
7128;SDS011;3606;52.930;8.644;2024-02-21T09:16:37;20.53;;;11.33;;
7128;SDS011;3606;52.930;8.644;2024-02-21T09:19:02;19.83;;;12.27;;
7128;SDS011;3606;52.930;8.644;2024-02-21T09:21:28;20.70;;;12.00;;
7128;SDS011;3606;52.930;8.644;2024-02-21T09:23:54;19.20;;;11.83;;
7128;SDS011;3606;52.930;8.644;2024-02-21T09:26:19;21.00;;;12.30;;
7128;SDS011;3606;52.930;8.644;2024-02-21T09:28:45;19.17;;;11.60;;
7128;SDS011;3606;52.930;8.644;2024-02-21T09:31:11;23.67;;;11.23;;
7128;SDS011;3606;52.930;8.644;2024-02-21T09:33:36;20.13;;;11.37;;
7128;SDS011;3606;52.930;8.644;2024-02-21T09:36:02;27.63;;;11.97;;
7128;SDS011;3606;52.930;8.644;2024-02-21T09:38:30;24.63;;;11.13;;
7128;SDS011;3606;52.930;8.644;2024-02-21T09:40:59;20.50;;;10.83;;
7128;SDS011;3606;52.930;8.644;2024-02-21T09:43:33;19.03;;;11.73;;
7128;SDS011;3606;52.930;8.644;2024-02-21T09:45:59;18.57;;;10.83;;
7128;SDS011;3606;52.930;8.644;2024-02-21T09:50:54;18.07;;;10.73;;
7128;SDS011;3606;52.930;8.644;2024-02-21T09:53:21;19.63;;;10.90;;
7128;SDS011;3606;52.930;8.644;2024-02-21T09:55:49;24.40;;;11.80;;
7128;SDS011;3606;52.930;8.644;2024-02-21T09:58:16;20.77;;;11.97;;
7128;SDS011;3606;52.930;8.644;2024-02-21T10:03:35;22.00;;;11.90;;
7128;SDS011;3606;52.930;8.644;2024-02-21T10:06:00;20.10;;;10.67;;
7128;SDS011;3606;52.930;8.644;2024-02-21T10:08:27;20.70;;;10.60;;
7128;SDS011;3606;52.930;8.644;2024-02-21T10:10:52;14.73;;;10.00;;
7128;SDS011;3606;52.930;8.644;2024-02-21T10:13:25;18.60;;;10.53;;
7128;SDS011;3606;52.930;8.644;2024-02-21T10:16:02;14.10;;;9.83;;
7128;SDS011;3606;52.930;8.644;2024-02-21T10:18:28;18.23;;;10.10;;
7128;SDS011;3606;52.930;8.644;2024-02-21T10:21:03;14.20;;;8.67;;
7128;SDS011;3606;52.930;8.644;2024-02-21T10:23:47;22.00;;;8.77;;
7128;SDS011;3606;52.930;8.644;2024-02-21T10:26:14;14.00;;;9.20;;
7128;SDS011;3606;52.930;8.644;2024-02-21T10:28:40;14.57;;;9.23;;
7128;SDS011;3606;52.930;8.644;2024-02-21T10:31:10;16.57;;;9.00;;
7128;SDS011;3606;52.930;8.644;2024-02-21T10:33:53;17.33;;;9.43;;
7128;SDS011;3606;52.930;8.644;2024-02-21T10:36:22;15.93;;;9.13;;
7128;SDS011;3606;52.930;8.644;2024-02-21T10:38:49;15.27;;;8.00;;
7128;SDS011;3606;52.930;8.644;2024-02-21T10:41:15;16.03;;;8.20;;
7128;SDS011;3606;52.930;8.644;2024-02-21T10:43:41;14.87;;;8.57;;
7128;SDS011;3606;52.930;8.644;2024-02-21T10:46:09;17.90;;;8.37;;
7128;SDS011;3606;52.930;8.644;2024-02-21T10:48:45;11.97;;;7.90;;
7128;SDS011;3606;52.930;8.644;2024-02-21T10:51:14;14.07;;;8.33;;
7128;SDS011;3606;52.930;8.644;2024-02-21T10:56:32;11.40;;;7.30;;
7128;SDS011;3606;52.930;8.644;2024-02-21T10:59:03;12.13;;;7.37;;
7128;SDS011;3606;52.930;8.644;2024-02-21T11:01:30;12.83;;;6.97;;
7128;SDS011;3606;52.930;8.644;2024-02-21T11:04:04;12.67;;;7.53;;
7128;SDS011;3606;52.930;8.644;2024-02-21T11:06:31;10.57;;;6.77;;
7128;SDS011;3606;52.930;8.644;2024-02-21T11:09:02;14.37;;;7.17;;
7128;SDS011;3606;52.930;8.644;2024-02-21T11:11:35;13.90;;;7.40;;
7128;SDS011;3606;52.930;8.644;2024-02-21T11:16:37;14.00;;;7.23;;
7128;SDS011;3606;52.930;8.644;2024-02-21T11:19:07;8.90;;;6.33;;
7128;SDS011;3606;52.930;8.644;2024-02-21T11:21:35;14.20;;;6.57;;
7128;SDS011;3606;52.930;8.644;2024-02-21T11:24:01;12.70;;;6.50;;
7128;SDS011;3606;52.930;8.644;2024-02-21T11:26:28;11.47;;;6.30;;
7128;SDS011;3606;52.930;8.644;2024-02-21T11:28:56;11.27;;;6.20;;
7128;SDS011;3606;52.930;8.644;2024-02-21T11:31:22;13.37;;;6.50;;
7128;SDS011;3606;52.930;8.644;2024-02-21T11:33:48;11.83;;;6.23;;
7128;SDS011;3606;52.930;8.644;2024-02-21T11:36:26;11.47;;;6.27;;
7128;SDS011;3606;52.930;8.644;2024-02-21T11:38:52;11.27;;;5.70;;
7128;SDS011;3606;52.930;8.644;2024-02-21T11:41:20;11.50;;;5.50;;
7128;SDS011;3606;52.930;8.644;2024-02-21T11:43:49;14.70;;;5.07;;
7128;SDS011;3606;52.930;8.644;2024-02-21T11:46:16;9.27;;;5.20;;
7128;SDS011;3606;52.930;8.644;2024-02-21T11:48:42;13.47;;;5.90;;
7128;SDS011;3606;52.930;8.644;2024-02-21T11:51:20;11.60;;;6.07;;
7128;SDS011;3606;52.930;8.644;2024-02-21T11:53:48;9.67;;;5.33;;
7128;SDS011;3606;52.930;8.644;2024-02-21T11:56:13;9.70;;;5.20;;
7128;SDS011;3606;52.930;8.644;2024-02-21T11:58:39;11.40;;;5.77;;
7128;SDS011;3606;52.930;8.644;2024-02-21T12:01:05;8.93;;;5.57;;
7128;SDS011;3606;52.930;8.644;2024-02-21T12:03:32;10.17;;;5.00;;
7128;SDS011;3606;52.930;8.644;2024-02-21T12:06:00;7.70;;;4.57;;
7128;SDS011;3606;52.930;8.644;2024-02-21T12:08:28;10.13;;;5.27;;
7128;SDS011;3606;52.930;8.644;2024-02-21T12:11:15;8.57;;;5.43;;
7128;SDS011;3606;52.930;8.644;2024-02-21T12:13:44;7.00;;;4.80;;
7128;SDS011;3606;52.930;8.644;2024-02-21T12:16:10;8.23;;;4.63;;
7128;SDS011;3606;52.930;8.644;2024-02-21T12:18:36;8.73;;;4.87;;
7128;SDS011;3606;52.930;8.644;2024-02-21T12:21:01;12.17;;;5.50;;
7128;SDS011;3606;52.930;8.644;2024-02-21T12:23:29;10.97;;;5.47;;
7128;SDS011;3606;52.930;8.644;2024-02-21T12:25:55;6.70;;;4.60;;
7128;SDS011;3606;52.930;8.644;2024-02-21T12:28:20;7.27;;;5.10;;
7128;SDS011;3606;52.930;8.644;2024-02-21T12:30:47;9.93;;;5.33;;
7128;SDS011;3606;52.930;8.644;2024-02-21T12:33:12;10.27;;;4.97;;
7128;SDS011;3606;52.930;8.644;2024-02-21T12:35:39;6.37;;;4.77;;
7128;SDS011;3606;52.930;8.644;2024-02-21T12:38:05;9.30;;;4.90;;
7128;SDS011;3606;52.930;8.644;2024-02-21T12:40:30;8.40;;;4.87;;
7128;SDS011;3606;52.930;8.644;2024-02-21T12:42:58;9.10;;;4.87;;
7128;SDS011;3606;52.930;8.644;2024-02-21T12:45:28;9.87;;;4.27;;
7128;SDS011;3606;52.930;8.644;2024-02-21T12:47:53;9.20;;;5.07;;
7128;SDS011;3606;52.930;8.644;2024-02-21T12:50:19;9.93;;;5.17;;
7128;SDS011;3606;52.930;8.644;2024-02-21T12:52:45;8.40;;;4.60;;
7128;SDS011;3606;52.930;8.644;2024-02-21T12:55:11;9.37;;;5.63;;
7128;SDS011;3606;52.930;8.644;2024-02-21T12:57:38;13.10;;;5.97;;
7128;SDS011;3606;52.930;8.644;2024-02-21T13:00:05;13.43;;;6.73;;
7128;SDS011;3606;52.930;8.644;2024-02-21T13:02:34;10.30;;;6.20;;
7128;SDS011;3606;52.930;8.644;2024-02-21T13:05:00;9.43;;;6.37;;
7128;SDS011;3606;52.930;8.644;2024-02-21T13:07:27;10.50;;;6.77;;
7128;SDS011;3606;52.930;8.644;2024-02-21T13:09:53;7.23;;;5.97;;
7128;SDS011;3606;52.930;8.644;2024-02-21T13:12:19;9.13;;;6.33;;
7128;SDS011;3606;52.930;8.644;2024-02-21T13:14:45;9.80;;;6.73;;
7128;SDS011;3606;52.930;8.644;2024-02-21T13:17:10;11.50;;;7.13;;
7128;SDS011;3606;52.930;8.644;2024-02-21T13:19:36;9.53;;;6.50;;
7128;SDS011;3606;52.930;8.644;2024-02-21T13:22:02;9.17;;;6.27;;
7128;SDS011;3606;52.930;8.644;2024-02-21T13:24:27;7.03;;;6.20;;
7128;SDS011;3606;52.930;8.644;2024-02-21T13:26:54;9.93;;;7.43;;
7128;SDS011;3606;52.930;8.644;2024-02-21T13:29:20;12.10;;;7.00;;
7128;SDS011;3606;52.930;8.644;2024-02-21T13:31:45;11.90;;;6.67;;
7128;SDS011;3606;52.930;8.644;2024-02-21T13:34:11;10.50;;;5.87;;
7128;SDS011;3606;52.930;8.644;2024-02-21T13:36:37;10.23;;;6.13;;
7128;SDS011;3606;52.930;8.644;2024-02-21T13:39:02;10.87;;;7.00;;
7128;SDS011;3606;52.930;8.644;2024-02-21T13:41:30;9.70;;;6.43;;
7128;SDS011;3606;52.930;8.644;2024-02-21T13:43:56;9.20;;;6.83;;
7128;SDS011;3606;52.930;8.644;2024-02-21T13:46:21;10.57;;;6.60;;
7128;SDS011;3606;52.930;8.644;2024-02-21T13:48:47;8.87;;;6.63;;
7128;SDS011;3606;52.930;8.644;2024-02-21T13:51:13;13.03;;;6.40;;
7128;SDS011;3606;52.930;8.644;2024-02-21T13:53:39;8.53;;;5.90;;
7128;SDS011;3606;52.930;8.644;2024-02-21T13:56:05;8.13;;;6.47;;
7128;SDS011;3606;52.930;8.644;2024-02-21T13:58:30;8.63;;;6.27;;
7128;SDS011;3606;52.930;8.644;2024-02-21T14:00:56;7.87;;;6.13;;
7128;SDS011;3606;52.930;8.644;2024-02-21T14:03:22;8.93;;;6.33;;
7128;SDS011;3606;52.930;8.644;2024-02-21T14:05:47;9.83;;;6.40;;
7128;SDS011;3606;52.930;8.644;2024-02-21T14:08:16;11.03;;;6.40;;
7128;SDS011;3606;52.930;8.644;2024-02-21T14:10:41;10.87;;;6.07;;
7128;SDS011;3606;52.930;8.644;2024-02-21T14:13:07;9.30;;;5.87;;
7128;SDS011;3606;52.930;8.644;2024-02-21T14:15:33;7.80;;;5.23;;
7128;SDS011;3606;52.930;8.644;2024-02-21T14:17:58;9.60;;;6.17;;
7128;SDS011;3606;52.930;8.644;2024-02-21T14:20:24;12.13;;;5.87;;
7128;SDS011;3606;52.930;8.644;2024-02-21T14:22:50;8.80;;;5.60;;
7128;SDS011;3606;52.930;8.644;2024-02-21T14:25:16;6.97;;;4.77;;
7128;SDS011;3606;52.930;8.644;2024-02-21T14:27:41;7.47;;;5.07;;
7128;SDS011;3606;52.930;8.644;2024-02-21T14:30:08;8.37;;;4.30;;
7128;SDS011;3606;52.930;8.644;2024-02-21T14:32:36;6.17;;;4.57;;
7128;SDS011;3606;52.930;8.644;2024-02-21T14:35:02;7.57;;;4.40;;
7128;SDS011;3606;52.930;8.644;2024-02-21T14:37:27;9.30;;;4.10;;
7128;SDS011;3606;52.930;8.644;2024-02-21T14:39:53;8.43;;;4.60;;
7128;SDS011;3606;52.930;8.644;2024-02-21T14:42:18;6.30;;;4.57;;
7128;SDS011;3606;52.930;8.644;2024-02-21T14:44:44;10.70;;;5.00;;
7128;SDS011;3606;52.930;8.644;2024-02-21T14:47:10;8.07;;;4.83;;
7128;SDS011;3606;52.930;8.644;2024-02-21T14:49:35;8.50;;;5.50;;
7128;SDS011;3606;52.930;8.644;2024-02-21T14:52:01;9.20;;;5.23;;
7128;SDS011;3606;52.930;8.644;2024-02-21T14:54:27;8.40;;;5.23;;
7128;SDS011;3606;52.930;8.644;2024-02-21T14:56:53;8.93;;;5.63;;
7128;SDS011;3606;52.930;8.644;2024-02-21T14:59:19;13.07;;;5.73;;
7128;SDS011;3606;52.930;8.644;2024-02-21T15:01:45;9.97;;;5.57;;
7128;SDS011;3606;52.930;8.644;2024-02-21T15:04:11;9.20;;;6.07;;
7128;SDS011;3606;52.930;8.644;2024-02-21T15:06:36;14.53;;;6.53;;
7128;SDS011;3606;52.930;8.644;2024-02-21T15:09:02;9.87;;;5.93;;
7128;SDS011;3606;52.930;8.644;2024-02-21T15:11:29;10.50;;;6.13;;
7128;SDS011;3606;52.930;8.644;2024-02-21T15:13:54;9.63;;;6.20;;
7128;SDS011;3606;52.930;8.644;2024-02-21T15:16:20;12.70;;;6.70;;
7128;SDS011;3606;52.930;8.644;2024-02-21T15:18:46;14.07;;;7.47;;
7128;SDS011;3606;52.930;8.644;2024-02-21T15:21:12;11.20;;;7.00;;
7128;SDS011;3606;52.930;8.644;2024-02-21T15:23:40;8.70;;;7.23;;
7128;SDS011;3606;52.930;8.644;2024-02-21T15:26:06;14.30;;;7.20;;
7128;SDS011;3606;52.930;8.644;2024-02-21T15:28:32;14.33;;;7.57;;
7128;SDS011;3606;52.930;8.644;2024-02-21T15:30:57;8.10;;;6.90;;
7128;SDS011;3606;52.930;8.644;2024-02-21T15:33:23;16.53;;;7.80;;
7128;SDS011;3606;52.930;8.644;2024-02-21T15:35:49;13.50;;;6.80;;
7128;SDS011;3606;52.930;8.644;2024-02-21T15:38:15;12.50;;;7.20;;
7128;SDS011;3606;52.930;8.644;2024-02-21T15:40:41;13.53;;;7.00;;
7128;SDS011;3606;52.930;8.644;2024-02-21T15:43:06;12.17;;;7.23;;
7128;SDS011;3606;52.930;8.644;2024-02-21T15:45:33;12.57;;;7.43;;
7128;SDS011;3606;52.930;8.644;2024-02-21T15:47:59;12.60;;;7.10;;
7128;SDS011;3606;52.930;8.644;2024-02-21T15:50:25;13.93;;;7.20;;
7128;SDS011;3606;52.930;8.644;2024-02-21T15:52:53;11.93;;;6.77;;
7128;SDS011;3606;52.930;8.644;2024-02-21T15:55:19;15.00;;;7.13;;
7128;SDS011;3606;52.930;8.644;2024-02-21T15:57:45;13.33;;;6.67;;
7128;SDS011;3606;52.930;8.644;2024-02-21T16:00:11;13.83;;;7.37;;
7128;SDS011;3606;52.930;8.644;2024-02-21T16:02:38;11.53;;;7.27;;
7128;SDS011;3606;52.930;8.644;2024-02-21T16:05:06;11.20;;;6.70;;
7128;SDS011;3606;52.930;8.644;2024-02-21T16:07:38;12.80;;;6.80;;
7128;SDS011;3606;52.930;8.644;2024-02-21T16:10:04;12.33;;;6.63;;
7128;SDS011;3606;52.930;8.644;2024-02-21T16:12:31;9.73;;;6.67;;
7128;SDS011;3606;52.930;8.644;2024-02-21T16:14:56;11.47;;;6.53;;
7128;SDS011;3606;52.930;8.644;2024-02-21T16:17:22;12.23;;;6.63;;
7128;SDS011;3606;52.930;8.644;2024-02-21T16:19:48;9.67;;;6.50;;
7128;SDS011;3606;52.930;8.644;2024-02-21T16:22:14;10.77;;;6.40;;
7128;SDS011;3606;52.930;8.644;2024-02-21T16:24:40;10.53;;;6.57;;
7128;SDS011;3606;52.930;8.644;2024-02-21T16:27:05;14.93;;;7.00;;
7128;SDS011;3606;52.930;8.644;2024-02-21T16:29:37;13.73;;;6.57;;